sensor_id;sensor_type;location;lat;lon;timestamp;pressure;altitude;pressure_sealevel;temperature;humidity
26839;BME280;40088;51.214;6.786;2023-07-29T00:01:29;100482.63;;;20.46;72.25
26839;BME280;40088;51.214;6.786;2023-07-29T00:11:29;100466.00;;;20.46;72.46
26839;BME280;40088;51.214;6.786;2023-07-29T00:21:30;100454.94;;;20.46;72.43
26839;BME280;40088;51.214;6.786;2023-07-29T00:31:30;100462.22;;;20.47;72.59
26839;BME280;40088;51.214;6.786;2023-07-29T00:41:31;100453.25;;;20.45;72.29
26839;BME280;40088;51.214;6.786;2023-07-29T00:51:31;100445.78;;;20.45;72.40
26839;BME280;40088;51.214;6.786;2023-07-29T01:01:31;100447.72;;;20.45;72.44
26839;BME280;40088;51.214;6.786;2023-07-29T01:12:01;100436.63;;;20.45;72.76
26839;BME280;40088;51.214;6.786;2023-07-29T01:22:02;100420.03;;;20.45;72.38
26839;BME280;40088;51.214;6.786;2023-07-29T01:32:39;100420.03;;;20.45;72.54
26839;BME280;40088;51.214;6.786;2023-07-29T01:42:37;100420.03;;;20.45;72.67
26839;BME280;40088;51.214;6.786;2023-07-29T01:52:37;100414.75;;;20.43;72.61
26839;BME280;40088;51.214;6.786;2023-07-29T02:02:38;100403.44;;;20.45;72.37
26839;BME280;40088;51.214;6.786;2023-07-29T02:12:38;100386.81;;;20.45;72.65
26839;BME280;40088;51.214;6.786;2023-07-29T02:22:38;100412.81;;;20.44;72.66
26839;BME280;40088;51.214;6.786;2023-07-29T02:32:39;100410.88;;;20.44;72.97
26839;BME280;40088;51.214;6.786;2023-07-29T02:42:39;100395.13;;;20.45;72.50
26839;BME280;40088;51.214;6.786;2023-07-29T02:52:40;100397.91;;;20.45;72.76
26839;BME280;40088;51.214;6.786;2023-07-29T03:02:40;100395.13;;;20.45;72.66
26839;BME280;40088;51.214;6.786;2023-07-29T03:12:40;100406.19;;;20.45;72.90
26839;BME280;40088;51.214;6.786;2023-07-29T03:22:40;100393.44;;;20.44;73.09
26839;BME280;40088;51.214;6.786;2023-07-29T03:32:43;100384.06;;;20.45;72.86
26839;BME280;40088;51.214;6.786;2023-07-29T03:42:44;100381.28;;;20.45;73.16
26839;BME280;40088;51.214;6.786;2023-07-29T03:52:45;100398.75;;;20.45;73.05
26839;BME280;40088;51.214;6.786;2023-07-29T04:02:45;100400.66;;;20.45;72.86
26839;BME280;40088;51.214;6.786;2023-07-29T04:12:45;100406.19;;;20.45;72.83
26839;BME280;40088;51.214;6.786;2023-07-29T04:22:46;100408.97;;;20.45;72.78
26839;BME280;40088;51.214;6.786;2023-07-29T04:32:46;100433.88;;;20.45;72.80
26839;BME280;40088;51.214;6.786;2023-07-29T04:42:48;100437.50;;;20.45;73.17
26839;BME280;40088;51.214;6.786;2023-07-29T04:52:49;100433.88;;;20.45;73.09
26839;BME280;40088;51.214;6.786;2023-07-29T05:02:49;100410.66;;;20.46;73.26
26839;BME280;40088;51.214;6.786;2023-07-29T05:12:50;100396.22;;;20.44;73.27
26839;BME280;40088;51.214;6.786;2023-07-29T05:22:50;100420.03;;;20.45;73.22
26839;BME280;40088;51.214;6.786;2023-07-29T05:32:50;100457.09;;;20.44;73.28
26839;BME280;40088;51.214;6.786;2023-07-29T05:42:50;100450.47;;;20.45;73.21
26839;BME280;40088;51.214;6.786;2023-07-29T05:52:51;100476.47;;;20.44;73.14
26839;BME280;40088;51.214;6.786;2023-07-29T06:02:51;100486.47;;;20.45;73.32
26839;BME280;40088;51.214;6.786;2023-07-29T06:12:51;100505.84;;;20.45;73.11
26839;BME280;40088;51.214;6.786;2023-07-29T06:22:52;100506.91;;;20.44;72.92
26839;BME280;40088;51.214;6.786;2023-07-29T06:32:52;100533.75;;;20.43;73.39
26839;BME280;40088;51.214;6.786;2023-07-29T06:42:52;100517.97;;;20.44;73.02
26839;BME280;40088;51.214;6.786;2023-07-29T06:52:52;100505.22;;;20.43;72.90
26839;BME280;40088;51.214;6.786;2023-07-29T07:02:53;100527.38;;;20.43;73.19
26839;BME280;40088;51.214;6.786;2023-07-29T07:12:53;100516.28;;;20.43;73.31
26839;BME280;40088;51.214;6.786;2023-07-29T07:22:54;100517.97;;;20.44;73.04
26839;BME280;40088;51.214;6.786;2023-07-29T07:32:54;100532.06;;;20.42;72.79
26839;BME280;40088;51.214;6.786;2023-07-29T07:42:54;100541.22;;;20.43;73.34
26839;BME280;40088;51.214;6.786;2023-07-29T07:52:54;100539.50;;;20.42;72.69
26839;BME280;40088;51.214;6.786;2023-07-29T08:02:55;100532.91;;;20.43;72.87
26839;BME280;40088;51.214;6.786;2023-07-29T08:12:55;100536.75;;;20.42;72.58
26839;BME280;40088;51.214;6.786;2023-07-29T08:22:55;100532.06;;;20.42;72.61
26839;BME280;40088;51.214;6.786;2023-07-29T08:32:56;100534.81;;;20.42;72.73
26839;BME280;40088;51.214;6.786;2023-07-29T08:42:58;100528.44;;;20.42;72.64
26839;BME280;40088;51.214;6.786;2023-07-29T08:52:59;100516.28;;;20.43;72.70
26839;BME280;40088;51.214;6.786;2023-07-29T09:03:00;100531.22;;;20.42;72.40
26839;BME280;40088;51.214;6.786;2023-07-29T09:13:06;100540.56;;;20.41;72.63
26839;BME280;40088;51.214;6.786;2023-07-29T09:23:08;100552.47;;;20.41;72.31
26839;BME280;40088;51.214;6.786;2023-07-29T09:33:12;100539.50;;;20.42;72.32
26839;BME280;40088;51.214;6.786;2023-07-29T09:43:12;100548.88;;;20.41;72.47
26839;BME280;40088;51.214;6.786;2023-07-29T09:53:13;100540.34;;;20.42;72.64
26839;BME280;40088;51.214;6.786;2023-07-29T10:03:14;100546.94;;;20.41;72.48
26839;BME280;40088;51.214;6.786;2023-07-29T10:13:15;100536.75;;;20.42;72.33
26839;BME280;40088;51.214;6.786;2023-07-29T10:23:17;100531.22;;;20.42;72.30
26839;BME280;40088;51.214;6.786;2023-07-29T10:33:18;100547.81;;;20.42;72.24
26839;BME280;40088;51.214;6.786;2023-07-29T10:43:24;100547.81;;;20.42;72.22
26839;BME280;40088;51.214;6.786;2023-07-29T10:53:29;100531.41;;;20.40;72.08
26839;BME280;40088;51.214;6.786;2023-07-29T11:03:30;100530.34;;;20.41;72.12
26839;BME280;40088;51.214;6.786;2023-07-29T11:13:32;100519.25;;;20.41;72.27
26839;BME280;40088;51.214;6.786;2023-07-29T11:23:35;100530.34;;;20.41;72.44
26839;BME280;40088;51.214;6.786;2023-07-29T11:33:38;100533.97;;;20.42;72.48
26839;BME280;40088;51.214;6.786;2023-07-29T11:43:40;100522.91;;;20.42;72.09
26839;BME280;40088;51.214;6.786;2023-07-29T11:53:41;100524.59;;;20.43;72.24
26839;BME280;40088;51.214;6.786;2023-07-29T12:03:43;100517.38;;;20.42;71.92
26839;BME280;40088;51.214;6.786;2023-07-29T12:13:43;100507.16;;;20.42;72.00
26839;BME280;40088;51.214;6.786;2023-07-29T12:23:43;100495.22;;;20.42;72.00
26839;BME280;40088;51.214;6.786;2023-07-29T12:33:44;100507.16;;;20.42;72.10
26839;BME280;40088;51.214;6.786;2023-07-29T12:43:44;100496.06;;;20.42;71.95
26839;BME280;40088;51.214;6.786;2023-07-29T12:53:45;100485.00;;;20.42;71.87
26839;BME280;40088;51.214;6.786;2023-07-29T13:03:45;100490.53;;;20.42;71.96
26839;BME280;40088;51.214;6.786;2023-07-29T13:13:46;100495.22;;;20.42;72.14
26839;BME280;40088;51.214;6.786;2023-07-29T13:23:46;100516.28;;;20.43;72.18
26839;BME280;40088;51.214;6.786;2023-07-29T13:33:46;100521.84;;;20.43;71.74
26839;BME280;40088;51.214;6.786;2023-07-29T13:43:46;100524.59;;;20.43;71.85
26839;BME280;40088;51.214;6.786;2023-07-29T13:53:47;100517.38;;;20.42;71.99
26839;BME280;40088;51.214;6.786;2023-07-29T14:03:47;100526.28;;;20.44;72.05
26839;BME280;40088;51.214;6.786;2023-07-29T14:13:47;100535.66;;;20.43;71.80
26839;BME280;40088;51.214;6.786;2023-07-29T14:23:48;100555.88;;;20.43;71.96
26839;BME280;40088;51.214;6.786;2023-07-29T14:33:48;100557.81;;;20.43;72.05
26839;BME280;40088;51.214;6.786;2023-07-29T14:43:49;100547.59;;;20.43;71.93
26839;BME280;40088;51.214;6.786;2023-07-29T14:53:50;100548.44;;;20.44;71.97
26839;BME280;40088;51.214;6.786;2023-07-29T15:03:50;100544.81;;;20.43;72.33
26839;BME280;40088;51.214;6.786;2023-07-29T15:13:50;100537.34;;;20.44;72.21
26839;BME280;40088;51.214;6.786;2023-07-29T15:23:50;100532.91;;;20.43;71.98
26839;BME280;40088;51.214;6.786;2023-07-29T15:33:51;100517.97;;;20.44;71.98
26839;BME280;40088;51.214;6.786;2023-07-29T15:43:51;100524.59;;;20.43;72.29
26839;BME280;40088;51.214;6.786;2023-07-29T15:53:51;100502.47;;;20.43;72.34
26839;BME280;40088;51.214;6.786;2023-07-29T16:03:52;100506.06;;;20.43;72.25
26839;BME280;40088;51.214;6.786;2023-07-29T16:13:52;100506.91;;;20.44;72.40
26839;BME280;40088;51.214;6.786;2023-07-29T16:23:52;100506.91;;;20.44;72.24
26839;BME280;40088;51.214;6.786;2023-07-29T16:33:53;100501.38;;;20.44;71.93
26839;BME280;40088;51.214;6.786;2023-07-29T16:43:53;100501.38;;;20.44;71.93
26839;BME280;40088;51.214;6.786;2023-07-29T16:53:53;100493.91;;;20.44;72.24
26839;BME280;40088;51.214;6.786;2023-07-29T17:03:53;100493.91;;;20.44;72.27
26839;BME280;40088;51.214;6.786;2023-07-29T17:13:54;100493.91;;;20.44;71.98
26839;BME280;40088;51.214;6.786;2023-07-29T17:23:54;100491.16;;;20.44;72.17
26839;BME280;40088;51.214;6.786;2023-07-29T17:33:54;100504.16;;;20.44;71.98
26839;BME280;40088;51.214;6.786;2023-07-29T17:43:55;100503.91;;;20.45;72.25
26839;BME280;40088;51.214;6.786;2023-07-29T17:53:55;100516.91;;;20.45;71.96
26839;BME280;40088;51.214;6.786;2023-07-29T18:03:55;100503.06;;;20.45;72.09
26839;BME280;40088;51.214;6.786;2023-07-29T18:13:56;100509.44;;;20.45;72.00
26839;BME280;40088;51.214;6.786;2023-07-29T18:23:56;100510.53;;;20.44;72.13
26839;BME280;40088;51.214;6.786;2023-07-29T18:33:56;100537.34;;;20.44;72.35
26839;BME280;40088;51.214;6.786;2023-07-29T18:43:56;100550.97;;;20.45;72.07
26839;BME280;40088;51.214;6.786;2023-07-29T18:53:57;100565.88;;;20.44;72.29
26839;BME280;40088;51.214;6.786;2023-07-29T19:03:58;100582.25;;;20.46;72.52
26839;BME280;40088;51.214;6.786;2023-07-29T19:13:59;100583.34;;;20.45;72.69
26839;BME280;40088;51.214;6.786;2023-07-29T19:23:59;100581.41;;;20.45;72.29
26839;BME280;40088;51.214;6.786;2023-07-29T19:34:00;100576.94;;;20.44;72.50
26839;BME280;40088;51.214;6.786;2023-07-29T19:44:00;100576.94;;;20.44;72.49
26839;BME280;40088;51.214;6.786;2023-07-29T19:54:00;100569.50;;;20.45;72.45
26839;BME280;40088;51.214;6.786;2023-07-29T20:04:00;100579.72;;;20.44;72.78
26839;BME280;40088;51.214;6.786;2023-07-29T20:14:01;100586.94;;;20.45;72.51
26839;BME280;40088;51.214;6.786;2023-07-29T20:24:01;100582.50;;;20.44;72.80
26839;BME280;40088;51.214;6.786;2023-07-29T20:34:01;100585.25;;;20.44;72.95
26839;BME280;40088;51.214;6.786;2023-07-29T20:44:02;100583.34;;;20.45;72.84
26839;BME280;40088;51.214;6.786;2023-07-29T20:54:02;100581.63;;;20.44;72.71
26839;BME280;40088;51.214;6.786;2023-07-29T21:04:03;100581.63;;;20.44;72.92
26839;BME280;40088;51.214;6.786;2023-07-29T21:14:03;100578.88;;;20.44;72.89
26839;BME280;40088;51.214;6.786;2023-07-29T21:24:03;100595.47;;;20.44;72.98
26839;BME280;40088;51.214;6.786;2023-07-29T21:34:04;100595.47;;;20.44;72.66
26839;BME280;40088;51.214;6.786;2023-07-29T21:44:04;100612.94;;;20.44;73.04
26839;BME280;40088;51.214;6.786;2023-07-29T21:54:05;100622.09;;;20.45;72.88
26839;BME280;40088;51.214;6.786;2023-07-29T22:04:05;100631.47;;;20.44;73.01
26839;BME280;40088;51.214;6.786;2023-07-29T22:14:05;100651.69;;;20.44;73.05
26839;BME280;40088;51.214;6.786;2023-07-29T22:24:06;100653.59;;;20.44;72.99
26839;BME280;40088;51.214;6.786;2023-07-29T22:34:08;100670.22;;;20.44;72.99
26839;BME280;40088;51.214;6.786;2023-07-29T22:44:08;100688.75;;;20.43;72.94
26839;BME280;40088;51.214;6.786;2023-07-29T22:54:08;100696.19;;;20.43;72.80
26839;BME280;40088;51.214;6.786;2023-07-29T23:04:09;100699.81;;;20.43;73.23
26839;BME280;40088;51.214;6.786;2023-07-29T23:14:09;100704.50;;;20.43;73.01
26839;BME280;40088;51.214;6.786;2023-07-29T23:24:09;100703.66;;;20.42;73.01
26839;BME280;40088;51.214;6.786;2023-07-29T23:34:10;100710.03;;;20.43;72.78
26839;BME280;40088;51.214;6.786;2023-07-29T23:44:12;100711.13;;;20.42;72.85
26839;BME280;40088;51.214;6.786;2023-07-29T23:54:12;100709.19;;;20.42;73.11
